Portada
METAR-TAF:

METAR-TAF

Aeroports :

Pau, França

latitud: 43-23N, longitud: 000-25W, altitud: 188 m

Observació

L'informe es va fer fa 26 minuts, a les 05:00 UTC
Vent 1 kt amb direcció variable
Temperatura 12°C
Humitat 100%
Pressió 1027 hPa
Visibilitat: 3400 m
Cel ennuvolat a una alçada de 400 ft

METAR: LFBP 270500Z AUTO VRB01KT 8000 3400 BKN004 12/12 Q1027 TEMPO BKN006

Hora: 07:26 (05:26 UTC)

Pronòstic

L'informe es va fer fa 6 hores i 26 minuts, a les 23:00 UTC
Pronòstic vàlid del 27 a les 00 UTC al 27 a les 24 UTC
Vent 5 kt del Oest/Sud-Oest
Visibilitat 10 km o més
sense núvols per sota de 1500 mi sense presència de cumulonimbus.
Probabilitat 30%
l' 27 a les 04 UTC al 27 a les 07 UTC
Cel ennuvolat a una alçada de 600 ft
Evolucionant progressivament
l' 27 a les 10 UTC al 27 a les 12 UTC
Vent 10 kt del Nord-Est

TAF: LFBP 262300Z 2700/2724 25005KT CAVOK PROB30 2704/2707 BKN006 BECMG 2710/2712 04010KT

Observacions i pronòstics meteorològics de més de 4000 aeroports (METAR i TAF).

Les estacions disponibles són els punts grocs i vermells al mapa.

Posi el ratolí al punt desitjat per veure el nom de l'estació.

Feu clic per veure les observacions i els pronòstics meteorològics.

Per canviar el mapa: feu clic els botons verds amb una creu de color negre per apropar; al botó verd amb un guió per allunyar la imatge; o en les fletxes verdes per a mapes adjacents.


METAR-TAF: